Time;durP1;ratioP1;P1;durP2;ratioP2;P2;SDS_P1;SDS_P2;PMS_P1;PMS_P2;Temp;Humidity;BMP_temperature;BMP_pressure;BME280_temperature;BME280_humidity;BME280_pressure;Samples;Min_cycle;Max_cycle;Signal;HPM_P1;HPM_P2
2021/10/23 06:50:54;;;;;;;;;19.75;18.25;;;;;;;;5139773;27;112553;-75
2021/10/23 07:42:45;;;;;;;;;11.00;9.50;;;;;;;;5141194;27;112102;-65
2021/10/23 07:45:12;;;;;;;;;15.00;13.75;;;;;;;;5120340;27;113644;-63
2021/10/23 07:47:37;;;;;;;;;14.50;12.00;;;;;;;;5119946;27;111833;-63
2021/10/23 07:50:03;;;;;;;;;14.25;12.25;;;;;;;;5120287;27;112093;-65
2021/10/23 07:52:31;;;;;;;;;10.75;9.25;;;;;;;;5118909;27;112449;-68
2021/10/23 07:54:56;;;;;;;;;10.00;9.50;;;;;;;;5117867;27;111804;-70
2021/10/23 07:57:21;;;;;;;;;9.50;9.00;;;;;;;;5120654;27;112207;-71
2021/10/23 07:59:46;;;;;;;;;11.00;11.00;;;;;;;;5119823;27;112303;-71
2021/10/23 08:02:12;;;;;;;;;11.75;10.25;;;;;;;;5123317;27;112167;-72
2021/10/23 08:04:37;;;;;;;;;9.75;9.75;;;;;;;;5112972;27;112274;-71
2021/10/23 08:07:03;;;;;;;;;10.00;9.25;;;;;;;;5101369;27;111975;-71
2021/10/23 08:09:33;;;;;;;;;11.00;10.50;;;;;;;;5120115;27;111924;-70
2021/10/23 08:11:59;;;;;;;;;6.25;6.25;;;;;;;;5099130;27;115265;-71
2021/10/23 08:14:24;;;;;;;;;11.00;8.00;;;;;;;;5120151;27;111854;-81
2021/10/23 08:16:50;;;;;;;;;11.25;9.00;;;;;;;;5120210;27;111860;-76
2021/10/23 08:19:15;;;;;;;;;14.00;13.00;;;;;;;;5114949;27;112898;-75
2021/10/23 08:21:41;;;;;;;;;10.75;10.75;;;;;;;;5112285;27;112720;-74
2021/10/23 08:24:07;;;;;;;;;14.00;12.25;;;;;;;;5121126;27;111961;-72
2021/10/23 08:26:33;;;;;;;;;14.00;13.00;;;;;;;;5116163;27;111715;-73
2021/10/23 08:28:58;;;;;;;;;16.50;15.75;;;;;;;;5117230;27;112982;-72
2021/10/23 08:31:24;;;;;;;;;21.75;19.75;;;;;;;;5097902;27;116384;-72
2021/10/23 08:33:50;;;;;;;;;18.00;18.00;;;;;;;;5116733;27;111925;-71
2021/10/23 08:36:15;;;;;;;;;17.75;17.75;;;;;;;;5115973;27;112871;-74
2021/10/23 08:38:41;;;;;;;;;21.75;20.75;;;;;;;;5115684;27;113505;-72
2021/10/23 08:41:07;;;;;;;;;13.25;10.50;;;;;;;;5118210;27;112176;-77
2021/10/23 08:43:33;;;;;;;;;21.75;16.00;;;;;;;;5117598;27;112136;-72
2021/10/23 08:45:59;;;;;;;;;12.75;11.50;;;;;;;;5099951;27;116469;-72
2021/10/23 08:48:25;;;;;;;;;13.00;11.00;;;;;;;;5111317;27;114201;-71
2021/10/23 08:50:51;;;;;;;;;14.75;13.00;;;;;;;;5114475;27;113680;-71
2021/10/23 08:53:17;;;;;;;;;14.25;12.25;;;;;;;;5108051;27;112148;-73
2021/10/23 08:55:42;;;;;;;;;9.00;9.00;;;;;;;;5104007;27;112046;-79
2021/10/23 08:58:16;;;;;;;;;16.75;10.50;;;;;;;;5103651;27;112281;-74
2021/10/23 09:00:41;;;;;;;;;11.00;9.00;;;;;;;;5103281;27;114112;-73
2021/10/23 09:03:06;;;;;;;;;10.50;9.00;;;;;;;;5097817;27;112131;-70
2021/10/23 09:05:33;;;;;;;;;13.00;10.25;;;;;;;;5088363;27;112459;-70
2021/10/23 09:07:58;;;;;;;;;10.00;10.00;;;;;;;;5086080;27;111988;-71
2021/10/23 09:10:23;;;;;;;;;11.75;11.50;;;;;;;;5079378;27;112964;-72
2021/10/23 09:12:58;;;;;;;;;8.25;8.25;;;;;;;;5080078;27;111816;-71
2021/10/23 09:15:23;;;;;;;;;12.50;11.25;;;;;;;;5083909;27;111867;-73
2021/10/23 09:17:49;;;;;;;;;9.00;9.00;;;;;;;;5081174;27;112969;-74
2021/10/23 09:20:15;;;;;;;;;10.00;9.25;;;;;;;;5084874;27;113745;-73
2021/10/23 09:22:42;;;;;;;;;8.00;7.50;;;;;;;;5085393;27;112307;-74
2021/10/23 09:25:21;;;;;;;;;6.00;6.00;;;;;;;;5083597;27;113870;-72
2021/10/23 09:28:01;;;;;;;;;8.33;7.00;;;;;;;;5084787;27;112476;-71
2021/10/23 09:30:32;;;;;;;;;8.33;7.33;;;;;;;;5088007;27;112029;-72
2021/10/23 09:32:59;;;;;;;;;8.33;8.33;;;;;;;;5084665;27;113098;-71
2021/10/23 09:35:25;;;;;;;;;9.00;7.00;;;;;;;;5084490;27;113256;-72
2021/10/23 09:37:53;;;;;;;;;7.67;6.33;;;;;;;;5083023;27;112993;-72
2021/10/23 09:40:19;;;;;;;;;6.67;6.33;;;;;;;;5084297;27;111881;-70
2021/10/23 09:42:45;;;;;;;;;7.00;7.00;;;;;;;;5065187;27;114987;-70
2021/10/23 09:45:10;;;;;;;;;8.00;6.00;;;;;;;;5083065;27;112319;-70
2021/10/23 09:47:43;;;;;;;;;6.67;6.00;;;;;;;;5084879;27;112151;-71
2021/10/23 09:50:16;;;;;;;;;6.00;6.00;;;;;;;;5084859;27;112203;-72
2021/10/23 09:53:00;;;;;;;;;10.00;6.67;;;;;;;;5087891;27;112203;-70
2021/10/23 09:55:35;;;;;;;;;6.67;6.00;;;;;;;;5092474;27;112361;-72
2021/10/23 09:58:09;;;;;;;;;3.33;3.33;;;;;;;;5085782;27;113003;-71
2021/10/23 10:00:35;;;;;;;;;5.00;5.00;;;;;;;;5081299;27;112310;-72
2021/10/23 10:03:00;;;;;;;;;4.33;4.00;;;;;;;;5082137;27;112050;-73
2021/10/23 10:05:26;;;;;;;;;3.33;3.00;;;;;;;;5084113;27;112914;-72
2021/10/23 10:07:52;;;;;;;;;5.00;5.00;;;;;;;;5087741;27;111793;-73
2021/10/23 10:10:17;;;;;;;;;6.00;6.00;;;;;;;;5084407;27;111804;-73
2021/10/23 10:12:42;;;;;;;;;2.00;2.00;;;;;;;;5089686;27;112635;-73
2021/10/23 10:15:08;;;;;;;;;7.00;4.00;;;;;;;;5093564;27;112427;-74
2021/10/23 10:17:36;;;;;;;;;3.00;3.00;;;;;;;;5091902;27;113682;-74
2021/10/23 10:20:02;;;;;;;;;5.00;4.00;;;;;;;;5092071;27;112197;-74
2021/10/23 10:22:27;;;;;;;;;3.00;3.00;;;;;;;;5092210;27;112061;-75
2021/10/23 10:25:12;;;;;;;;;3.00;3.00;;;;;;;;5073532;27;112856;-72
2021/10/23 10:27:44;;;;;;;;;4.00;4.00;;;;;;;;5090739;27;112116;-71
2021/10/23 10:30:34;;;;;;;;;2.67;2.67;;;;;;;;5074531;27;111911;-72
2021/10/23 10:33:19;;;;;;;;;5.00;3.67;;;;;;;;5085318;27;112444;-73
2021/10/23 10:36:00;;;;;;;;;2.67;2.67;;;;;;;;5090284;27;117232;-72
2021/10/23 10:38:40;;;;;;;;;4.00;3.00;;;;;;;;5092296;27;113659;-73
2021/10/23 10:44:09;;;;;;;;;0.67;0.67;;;;;;;;5094712;27;112076;-74
2021/10/23 10:46:53;;;;;;;;;3.00;3.00;;;;;;;;5074468;27;113767;-72
2021/10/23 10:49:37;;;;;;;;;2.00;2.00;;;;;;;;5090895;27;113005;-78
2021/10/23 10:52:23;;;;;;;;;3.00;3.00;;;;;;;;5064775;27;113257;-74
2021/10/23 10:55:07;;;;;;;;;2.00;2.00;;;;;;;;5062688;27;116314;-77
2021/10/23 10:57:52;;;;;;;;;2.00;2.00;;;;;;;;5083256;27;111898;-72
2021/10/23 11:00:17;;;;;;;;;4.00;2.33;;;;;;;;5084915;27;112132;-72
2021/10/23 11:02:43;;;;;;;;;1.00;1.00;;;;;;;;5082780;27;112284;-72
2021/10/23 11:05:08;;;;;;;;;2.00;2.00;;;;;;;;5082377;27;111985;-71
2021/10/23 11:07:57;;;;;;;;;3.00;2.00;;;;;;;;5098926;27;112700;-73
2021/10/23 11:10:51;;;;;;;;;2.00;2.00;;;;;;;;5089234;27;111936;-75
2021/10/23 11:13:24;;;;;;;;;4.00;3.00;;;;;;;;5081012;27;111951;-72
2021/10/23 11:15:49;;;;;;;;;2.00;2.00;;;;;;;;5102175;27;113867;-73
2021/10/23 11:18:16;;;;;;;;;3.00;3.00;;;;;;;;5104027;27;112063;-73
2021/10/23 11:20:45;;;;;;;;;3.00;2.00;;;;;;;;5103094;27;111896;-72
2021/10/23 11:23:12;;;;;;;;;2.67;2.67;;;;;;;;5105565;27;113725;-73
2021/10/23 11:25:38;;;;;;;;;4.00;3.00;;;;;;;;5103552;27;112313;-72
2021/10/23 11:28:09;;;;;;;;;3.33;3.33;;;;;;;;5102741;27;112880;-68
2021/10/23 11:30:39;;;;;;;;;6.33;4.67;;;;;;;;5084671;27;111942;-69
2021/10/23 11:33:06;;;;;;;;;5.00;3.67;;;;;;;;5103711;27;112318;-68
2021/10/23 11:35:31;;;;;;;;;2.25;2.25;;;;;;;;5102154;27;112532;-69
2021/10/23 11:37:56;;;;;;;;;4.33;4.33;;;;;;;;5103206;27;112093;-68
2021/10/23 11:40:21;;;;;;;;;4.50;3.00;;;;;;;;5101503;27;112185;-68
2021/10/23 11:42:51;;;;;;;;;4.00;3.00;;;;;;;;5100574;27;112665;-69
2021/10/23 11:45:16;;;;;;;;;4.25;3.75;;;;;;;;5102527;27;114267;-67
2021/10/23 11:47:43;;;;;;;;;1.75;1.75;;;;;;;;5100646;27;112501;-70
2021/10/23 11:50:17;;;;;;;;;3.00;3.00;;;;;;;;5095653;27;112104;-67
2021/10/23 11:52:47;;;;;;;;;3.00;3.00;;;;;;;;5102102;27;112102;-67
2021/10/23 11:55:23;;;;;;;;;3.50;3.50;;;;;;;;5080889;27;112525;-66
2021/10/23 11:57:53;;;;;;;;;2.50;2.50;;;;;;;;5081242;27;112059;-69
2021/10/23 12:00:19;;;;;;;;;4.00;4.00;;;;;;;;5082143;27;112358;-69
2021/10/23 12:02:48;;;;;;;;;3.75;3.75;;;;;;;;5061601;27;115782;-75
2021/10/23 12:05:21;;;;;;;;;3.00;3.00;;;;;;;;5085169;27;112387;-74
2021/10/23 12:08:05;;;;;;;;;2.75;2.75;;;;;;;;5098770;27;112535;-69
2021/10/23 12:10:31;;;;;;;;;1.50;1.00;;;;;;;;5101795;27;111732;-69
2021/10/23 12:13:09;;;;;;;;;4.50;3.00;;;;;;;;5101722;27;111939;-73
2021/10/23 12:15:34;;;;;;;;;2.00;2.00;;;;;;;;5101152;27;112515;-71
2021/10/23 12:18:04;;;;;;;;;3.75;3.00;;;;;;;;5102021;27;111664;-72
2021/10/23 12:20:34;;;;;;;;;3.50;3.50;;;;;;;;5101947;27;112143;-70
2021/10/23 12:22:59;;;;;;;;;5.75;5.00;;;;;;;;5095006;27;112714;-70
2021/10/23 12:25:27;;;;;;;;;0.00;0.00;;;;;;;;5102503;27;111789;-72
2021/10/23 12:28:00;;;;;;;;;3.00;1.25;;;;;;;;5105422;27;112290;-76
2021/10/23 12:30:25;;;;;;;;;4.00;4.00;;;;;;;;5105480;27;111995;-74
2021/10/23 12:32:51;;;;;;;;;1.00;1.00;;;;;;;;5105572;27;112540;-68
2021/10/23 12:35:20;;;;;;;;;2.00;2.00;;;;;;;;5104215;27;113335;-70
2021/10/23 12:37:46;;;;;;;;;3.25;2.75;;;;;;;;5106114;27;112611;-69
2021/10/23 12:40:14;;;;;;;;;1.00;1.00;;;;;;;;5105523;27;111798;-84
2021/10/23 12:42:44;;;;;;;;;2.00;2.00;;;;;;;;5104751;27;113775;-82
2021/10/23 12:45:11;;;;;;;;;2.50;2.00;;;;;;;;5106475;27;111968;-67
2021/10/23 12:47:36;;;;;;;;;3.00;3.00;;;;;;;;5105251;27;113031;-66
2021/10/23 12:50:02;;;;;;;;;2.25;1.00;;;;;;;;5108165;27;112315;-66
2021/10/23 12:52:27;;;;;;;;;2.00;1.50;;;;;;;;5105807;27;111764;-82
2021/10/23 12:54:53;;;;;;;;;3.00;1.00;;;;;;;;5106594;27;112461;-80
2021/10/23 12:57:19;;;;;;;;;2.75;2.00;;;;;;;;5106552;27;111816;-80
2021/10/23 12:59:44;;;;;;;;;4.50;2.25;;;;;;;;5087053;27;112667;-76
2021/10/23 13:02:09;;;;;;;;;3.75;3.75;;;;;;;;5104414;27;112525;-77
2021/10/23 13:04:35;;;;;;;;;7.00;3.75;;;;;;;;5105736;27;111729;-84
2021/10/23 13:07:00;;;;;;;;;4.00;3.00;;;;;;;;5106367;27;112625;-83
2021/10/23 13:09:25;;;;;;;;;4.00;3.00;;;;;;;;5105322;27;112422;-82
2021/10/23 13:11:50;;;;;;;;;6.25;4.50;;;;;;;;5109694;27;111834;-84
2021/10/23 13:14:18;;;;;;;;;5.75;3.00;;;;;;;;5104743;27;112907;-83
2021/10/23 13:16:43;;;;;;;;;3.00;2.00;;;;;;;;5116636;27;111803;-82
2021/10/23 13:19:08;;;;;;;;;2.25;2.25;;;;;;;;5115413;27;112346;-83
2021/10/23 13:21:34;;;;;;;;;3.00;3.00;;;;;;;;5106303;27;112907;-83
2021/10/23 13:23:59;;;;;;;;;1.75;1.75;;;;;;;;5086742;27;111983;-83
2021/10/23 13:26:24;;;;;;;;;6.50;3.00;;;;;;;;5087330;27;112100;-84
2021/10/23 13:28:50;;;;;;;;;3.75;3.00;;;;;;;;5085581;27;113650;-82
2021/10/23 13:31:15;;;;;;;;;4.50;3.50;;;;;;;;5105695;27;111655;-83
2021/10/23 13:33:40;;;;;;;;;3.00;3.00;;;;;;;;5108095;27;112206;-83
2021/10/23 13:36:08;;;;;;;;;3.00;3.00;;;;;;;;5105344;27;112051;-83
2021/10/23 13:38:34;;;;;;;;;1.50;1.50;;;;;;;;5105872;27;111892;-83
2021/10/23 13:40:59;;;;;;;;;3.00;3.00;;;;;;;;5104035;27;112310;-82
2021/10/23 13:43:24;;;;;;;;;6.00;3.75;;;;;;;;5105324;27;112129;-81
2021/10/23 13:45:50;;;;;;;;;5.25;4.00;;;;;;;;5105545;27;112265;-82
2021/10/23 13:48:16;;;;;;;;;6.00;4.00;;;;;;;;5104261;27;112549;-82
2021/10/23 13:50:41;;;;;;;;;4.00;4.00;;;;;;;;5105174;27;111669;-81
2021/10/23 13:53:06;;;;;;;;;6.25;4.00;;;;;;;;5105181;27;111942;-82
2021/10/23 13:55:32;;;;;;;;;4.00;4.00;;;;;;;;5107648;27;112318;-82
2021/10/23 13:57:57;;;;;;;;;5.00;4.50;;;;;;;;5105652;27;113348;-80
2021/10/23 14:00:23;;;;;;;;;6.00;4.00;;;;;;;;5104352;27;112779;-81
2021/10/23 14:02:49;;;;;;;;;7.00;7.00;;;;;;;;5104886;27;111969;-81
2021/10/23 14:05:14;;;;;;;;;7.00;5.50;;;;;;;;5104624;27;112460;-79
2021/10/23 14:07:39;;;;;;;;;6.00;5.00;;;;;;;;5103300;27;112833;-81
2021/10/23 14:10:05;;;;;;;;;8.50;7.00;;;;;;;;5104683;27;112140;-80
2021/10/23 14:12:30;;;;;;;;;6.50;6.00;;;;;;;;5103938;27;111894;-80
2021/10/23 14:14:55;;;;;;;;;11.25;7.75;;;;;;;;5107363;27;112403;-80
2021/10/23 14:17:21;;;;;;;;;5.50;4.50;;;;;;;;5103873;27;111820;-80
2021/10/23 14:19:46;;;;;;;;;8.25;6.50;;;;;;;;5102899;27;112847;-79
2021/10/23 14:22:16;;;;;;;;;9.25;6.00;;;;;;;;5103702;27;112052;-79
2021/10/23 14:24:41;;;;;;;;;8.50;6.50;;;;;;;;5085359;27;112603;-79
2021/10/23 14:27:14;;;;;;;;;8.00;7.00;;;;;;;;5102984;27;114030;-79
2021/10/23 14:29:40;;;;;;;;;8.00;7.00;;;;;;;;5103534;27;112011;-79
2021/10/23 14:32:05;;;;;;;;;6.75;6.00;;;;;;;;5103923;27;111897;-79
2021/10/23 14:34:30;;;;;;;;;8.00;5.75;;;;;;;;5102376;27;113980;-74
2021/10/23 14:36:56;;;;;;;;;5.50;5.50;;;;;;;;5107730;27;111967;-79
2021/10/23 14:39:21;;;;;;;;;10.00;6.00;;;;;;;;5102552;27;113523;-79
2021/10/23 14:41:47;;;;;;;;;6.75;6.75;;;;;;;;5104010;27;111841;-79
2021/10/23 14:44:12;;;;;;;;;6.50;6.50;;;;;;;;5104851;27;112154;-79
2021/10/23 14:46:37;;;;;;;;;7.00;6.00;;;;;;;;5103089;27;112979;-79
2021/10/23 14:49:02;;;;;;;;;7.50;7.00;;;;;;;;5103998;27;111741;-79
2021/10/23 14:51:28;;;;;;;;;6.50;6.50;;;;;;;;5096448;27;112479;-79
2021/10/23 14:53:53;;;;;;;;;6.00;6.00;;;;;;;;5102354;27;112409;-78
2021/10/23 14:56:18;;;;;;;;;9.50;7.00;;;;;;;;5084517;27;112072;-77
2021/10/23 14:58:44;;;;;;;;;6.00;5.50;;;;;;;;5106330;27;112439;-77
2021/10/23 15:01:09;;;;;;;;;7.00;7.00;;;;;;;;5103206;27;111968;-78
2021/10/23 15:03:35;;;;;;;;;9.75;8.25;;;;;;;;5103051;27;112254;-77
2021/10/23 15:06:00;;;;;;;;;7.25;7.00;;;;;;;;5102139;27;112647;-77
2021/10/23 15:08:26;;;;;;;;;6.25;6.25;;;;;;;;5104036;27;111856;-77
2021/10/23 15:10:51;;;;;;;;;6.00;6.00;;;;;;;;5103939;27;112263;-78
2021/10/23 15:13:17;;;;;;;;;8.75;7.50;;;;;;;;5102877;27;112820;-76
2021/10/23 15:15:44;;;;;;;;;8.50;7.00;;;;;;;;5103496;27;112103;-76
2021/10/23 15:18:09;;;;;;;;;6.50;6.50;;;;;;;;5103070;27;112116;-78
2021/10/23 15:20:34;;;;;;;;;8.00;6.75;;;;;;;;5109166;27;112391;-78
2021/10/23 15:23:00;;;;;;;;;12.50;8.00;;;;;;;;5107624;27;112392;-77
2021/10/23 15:25:25;;;;;;;;;8.25;7.00;;;;;;;;5110238;27;111823;-78
2021/10/23 15:27:51;;;;;;;;;8.00;6.50;;;;;;;;5103502;27;112209;-77
2021/10/23 15:30:16;;;;;;;;;8.75;7.75;;;;;;;;5103543;27;112046;-79
2021/10/23 15:32:44;;;;;;;;;8.75;8.00;;;;;;;;5102474;27;112891;-78
2021/10/23 15:35:09;;;;;;;;;7.00;7.00;;;;;;;;5103035;27;111826;-78
2021/10/23 15:37:34;;;;;;;;;7.25;7.25;;;;;;;;5103222;27;112349;-78
2021/10/23 15:40:00;;;;;;;;;8.75;8.00;;;;;;;;5101807;27;113009;-77
2021/10/23 15:42:25;;;;;;;;;10.50;6.50;;;;;;;;5105948;27;111783;-76
2021/10/23 15:44:53;;;;;;;;;6.75;6.75;;;;;;;;5102258;27;112430;-77
2021/10/23 15:47:18;;;;;;;;;9.00;8.75;;;;;;;;5102613;27;111818;-76
2021/10/23 15:49:45;;;;;;;;;11.75;8.50;;;;;;;;5102311;27;112325;-76
2021/10/23 15:52:22;;;;;;;;;8.75;8.25;;;;;;;;5102239;27;112367;-76
2021/10/23 15:54:47;;;;;;;;;9.00;7.75;;;;;;;;5099629;27;112093;-76
2021/10/23 15:57:13;;;;;;;;;9.25;7.25;;;;;;;;5102618;27;112554;-79
2021/10/23 15:59:38;;;;;;;;;9.00;6.75;;;;;;;;5102437;27;112434;-77
2021/10/23 16:02:03;;;;;;;;;9.75;9.00;;;;;;;;5102533;27;112220;-81
2021/10/23 16:04:29;;;;;;;;;10.75;10.75;;;;;;;;5093155;27;113855;-75
2021/10/23 16:06:54;;;;;;;;;10.25;8.75;;;;;;;;5084871;27;112612;-79
2021/10/23 16:09:21;;;;;;;;;11.00;10.75;;;;;;;;5084997;27;112036;-78
2021/10/23 16:11:47;;;;;;;;;9.00;9.00;;;;;;;;5084090;27;113776;-79
2021/10/23 16:14:12;;;;;;;;;13.50;10.75;;;;;;;;5085377;27;111861;-78
2021/10/23 16:16:37;;;;;;;;;12.25;11.00;;;;;;;;5079345;27;112427;-79
2021/10/23 16:19:03;;;;;;;;;18.25;12.00;;;;;;;;5064758;27;113961;-81
2021/10/23 16:21:28;;;;;;;;;15.25;10.00;;;;;;;;5084252;27;111907;-81
2021/10/23 16:23:53;;;;;;;;;10.50;10.50;;;;;;;;5087553;27;112078;-78
2021/10/23 16:26:19;;;;;;;;;14.50;11.25;;;;;;;;5084367;27;111836;-78
2021/10/23 16:28:44;;;;;;;;;10.00;8.25;;;;;;;;5085127;27;112212;-78
2021/10/23 16:31:09;;;;;;;;;11.75;9.00;;;;;;;;5083670;27;112655;-78
2021/10/23 16:33:34;;;;;;;;;15.00;12.75;;;;;;;;5085536;27;111760;-77
2021/10/23 16:36:00;;;;;;;;;13.25;11.50;;;;;;;;5082224;27;112405;-80
2021/10/23 16:38:25;;;;;;;;;13.50;12.50;;;;;;;;5084079;27;112367;-78
2021/10/23 16:40:50;;;;;;;;;15.50;14.75;;;;;;;;5084276;27;111963;-75
2021/10/23 16:43:16;;;;;;;;;13.75;12.25;;;;;;;;5084914;27;111890;-80
2021/10/23 16:45:41;;;;;;;;;18.75;14.50;;;;;;;;5088349;27;112655;-84
2021/10/23 16:48:06;;;;;;;;;14.25;13.25;;;;;;;;5083872;27;112849;-76
2021/10/23 16:50:32;;;;;;;;;14.75;14.00;;;;;;;;5083555;27;113490;-75
2021/10/23 16:52:57;;;;;;;;;17.00;14.25;;;;;;;;5084282;27;112027;-81
2021/10/23 16:55:23;;;;;;;;;15.25;12.00;;;;;;;;5083983;27;112175;-80
2021/10/23 16:57:48;;;;;;;;;15.75;12.50;;;;;;;;5081994;27;113685;-81
2021/10/23 17:00:14;;;;;;;;;16.25;16.25;;;;;;;;5082433;27;112195;-82
2021/10/23 17:02:39;;;;;;;;;12.25;11.75;;;;;;;;5084313;27;112721;-83
2021/10/23 17:05:04;;;;;;;;;17.00;14.50;;;;;;;;5083897;27;112972;-82
2021/10/23 17:07:31;;;;;;;;;12.75;12.75;;;;;;;;5069771;27;112141;-83
2021/10/23 17:09:56;;;;;;;;;19.75;17.00;;;;;;;;5082501;27;112556;-79
2021/10/23 17:12:21;;;;;;;;;20.00;17.00;;;;;;;;5065983;27;111893;-80
2021/10/23 17:14:46;;;;;;;;;17.50;15.50;;;;;;;;5057523;27;112368;-79
2021/10/23 17:17:12;;;;;;;;;16.75;14.25;;;;;;;;5042391;27;112545;-80
2021/10/23 17:19:37;;;;;;;;;17.75;14.00;;;;;;;;5060767;27;112187;-79
2021/10/23 17:22:03;;;;;;;;;19.00;16.25;;;;;;;;5057573;27;113329;-84
2021/10/23 17:24:28;;;;;;;;;17.50;16.25;;;;;;;;5083489;27;116515;-79
2021/10/23 17:26:53;;;;;;;;;16.50;15.50;;;;;;;;5069932;27;112495;-77
2021/10/23 17:29:18;;;;;;;;;16.00;14.00;;;;;;;;5062466;27;113263;-76
2021/10/23 17:31:44;;;;;;;;;21.50;17.25;;;;;;;;5062768;27;111823;-79
2021/10/23 17:34:09;;;;;;;;;16.25;16.00;;;;;;;;4980586;27;112532;-83
2021/10/23 17:36:36;;;;;;;;;14.50;13.50;;;;;;;;4947837;27;305396;-76
2021/10/23 17:39:02;;;;;;;;;16.50;12.75;;;;;;;;5055168;27;112680;-77
2021/10/23 17:41:27;;;;;;;;;22.00;17.00;;;;;;;;5048233;27;114122;-75
2021/10/23 17:43:53;;;;;;;;;16.75;15.00;;;;;;;;5048367;27;112343;-78
2021/10/23 17:46:18;;;;;;;;;17.00;16.50;;;;;;;;5048789;27;113603;-76
2021/10/23 17:48:44;;;;;;;;;15.50;14.00;;;;;;;;5046801;27;114866;-78
2021/10/23 17:51:09;;;;;;;;;15.50;15.25;;;;;;;;5058024;27;114062;-81
2021/10/23 17:53:34;;;;;;;;;17.00;14.75;;;;;;;;5054435;27;112758;-81
2021/10/23 17:56:00;;;;;;;;;20.75;16.75;;;;;;;;5051178;27;112464;-78
2021/10/23 17:58:26;;;;;;;;;17.50;13.50;;;;;;;;5054908;27;112258;-75
2021/10/23 18:00:51;;;;;;;;;14.25;11.75;;;;;;;;5062893;27;112250;-79
2021/10/23 18:03:17;;;;;;;;;12.00;10.00;;;;;;;;5060958;27;112456;-80
2021/10/23 18:05:46;;;;;;;;;15.00;12.75;;;;;;;;5063249;27;112541;-82
2021/10/23 18:08:12;;;;;;;;;12.00;11.25;;;;;;;;5061821;27;113377;-84
2021/10/23 18:10:37;;;;;;;;;24.00;22.75;;;;;;;;5064172;27;113364;-85
2021/10/23 18:13:03;;;;;;;;;24.00;23.00;;;;;;;;5070467;27;111616;-84
2021/10/23 18:15:33;;;;;;;;;62.25;48.25;;;;;;;;5065185;27;112621;-84
2021/10/23 18:18:08;;;;;;;;;28.25;26.50;;;;;;;;5061199;27;111879;-80
2021/10/23 18:20:34;;;;;;;;;18.75;14.75;;;;;;;;5062385;27;113272;-78
2021/10/23 18:22:59;;;;;;;;;18.75;13.75;;;;;;;;5060765;27;112849;-75
2021/10/23 18:25:24;;;;;;;;;16.00;16.00;;;;;;;;5061169;27;111724;-77
2021/10/23 18:27:50;;;;;;;;;15.00;12.50;;;;;;;;5061840;27;112417;-75
2021/10/23 18:30:15;;;;;;;;;16.00;14.75;;;;;;;;5060254;27;112851;-74
2021/10/23 18:32:44;;;;;;;;;11.00;10.50;;;;;;;;5063411;27;112344;-75
2021/10/23 18:35:10;;;;;;;;;13.00;11.75;;;;;;;;5060070;27;114282;-73
2021/10/23 18:37:36;;;;;;;;;16.50;12.25;;;;;;;;5061533;27;111713;-75
2021/10/23 18:40:03;;;;;;;;;16.25;11.25;;;;;;;;5060841;27;112411;-77
2021/10/23 18:42:28;;;;;;;;;13.50;13.50;;;;;;;;5060186;27;113570;-76
2021/10/23 18:44:53;;;;;;;;;12.50;10.00;;;;;;;;5055899;27;111819;-76
2021/10/23 18:47:19;;;;;;;;;18.00;14.75;;;;;;;;5049346;27;116864;-73
2021/10/23 18:49:45;;;;;;;;;12.75;12.75;;;;;;;;5051018;27;113571;-72
2021/10/23 18:52:14;;;;;;;;;16.75;13.25;;;;;;;;5048602;27;112643;-74
2021/10/23 18:54:40;;;;;;;;;15.50;15.25;;;;;;;;5053039;27;113334;-72
2021/10/23 18:57:05;;;;;;;;;16.50;15.25;;;;;;;;5050603;27;112524;-74
2021/10/23 18:59:31;;;;;;;;;18.50;16.50;;;;;;;;5044570;27;112229;-75
2021/10/23 19:01:56;;;;;;;;;15.75;14.75;;;;;;;;5047964;27;113572;-75
2021/10/23 19:04:22;;;;;;;;;15.00;14.00;;;;;;;;5050311;27;112183;-74
2021/10/23 19:06:47;;;;;;;;;17.00;12.75;;;;;;;;5049086;27;112108;-79
2021/10/23 19:09:12;;;;;;;;;17.50;14.75;;;;;;;;5047317;27;112532;-78
2021/10/23 19:11:38;;;;;;;;;22.25;20.00;;;;;;;;5050577;27;111928;-79
2021/10/23 19:14:03;;;;;;;;;16.75;14.75;;;;;;;;5049064;27;113591;-79
2021/10/23 19:16:29;;;;;;;;;16.50;16.00;;;;;;;;5053060;27;113113;-77
2021/10/23 19:18:54;;;;;;;;;13.00;11.00;;;;;;;;5047569;27;111880;-74
2021/10/23 19:21:20;;;;;;;;;15.25;10.25;;;;;;;;5051251;27;113118;-77
2021/10/23 19:23:45;;;;;;;;;14.00;13.00;;;;;;;;5044919;27;112258;-73
2021/10/23 19:26:10;;;;;;;;;10.00;8.25;;;;;;;;5049365;27;112118;-73
2021/10/23 19:28:36;;;;;;;;;15.25;11.00;;;;;;;;5046903;27;114109;-74
2021/10/23 19:31:02;;;;;;;;;12.25;10.75;;;;;;;;5060886;27;111862;-75
2021/10/23 19:33:27;;;;;;;;;9.25;5.50;;;;;;;;5060678;27;112879;-76
2021/10/23 19:35:52;;;;;;;;;15.75;14.00;;;;;;;;5059835;27;112276;-75
2021/10/23 19:38:20;;;;;;;;;15.25;12.75;;;;;;;;5061011;27;112431;-75
2021/10/23 19:40:47;;;;;;;;;12.00;12.00;;;;;;;;5041091;27;114297;-76
2021/10/23 19:43:13;;;;;;;;;14.75;10.50;;;;;;;;5049345;27;112311;-76
